sensor_id;sensor_type;location;lat;lon;timestamp;P1;durP1;ratioP1;P2;durP2;ratioP2
18796;SDS011;9526;52.612;13.300;2023-09-07T00:00:14;8.00;;;6.22;;
18796;SDS011;9526;52.612;13.300;2023-09-07T00:02:39;12.30;;;6.70;;
18796;SDS011;9526;52.612;13.300;2023-09-07T00:05:04;8.95;;;6.07;;
18796;SDS011;9526;52.612;13.300;2023-09-07T00:07:29;9.20;;;6.28;;
18796;SDS011;9526;52.612;13.300;2023-09-07T00:09:53;9.70;;;6.18;;
18796;SDS011;9526;52.612;13.300;2023-09-07T00:12:17;12.10;;;6.93;;
18796;SDS011;9526;52.612;13.300;2023-09-07T00:14:40;11.63;;;6.50;;
18796;SDS011;9526;52.612;13.300;2023-09-07T00:17:04;12.88;;;6.63;;
18796;SDS011;9526;52.612;13.300;2023-09-07T00:19:30;9.93;;;6.10;;
18796;SDS011;9526;52.612;13.300;2023-09-07T00:21:55;9.93;;;6.07;;
18796;SDS011;9526;52.612;13.300;2023-09-07T00:24:19;8.98;;;5.85;;
18796;SDS011;9526;52.612;13.300;2023-09-07T00:26:45;9.20;;;6.70;;
18796;SDS011;9526;52.612;13.300;2023-09-07T00:29:08;10.55;;;6.03;;
18796;SDS011;9526;52.612;13.300;2023-09-07T00:31:32;8.65;;;6.30;;
18796;SDS011;9526;52.612;13.300;2023-09-07T00:33:56;8.57;;;5.93;;
18796;SDS011;9526;52.612;13.300;2023-09-07T00:36:21;9.32;;;6.03;;
18796;SDS011;9526;52.612;13.300;2023-09-07T00:38:44;9.95;;;6.65;;
18796;SDS011;9526;52.612;13.300;2023-09-07T00:41:08;8.05;;;5.80;;
18796;SDS011;9526;52.612;13.300;2023-09-07T00:43:32;9.35;;;6.63;;
18796;SDS011;9526;52.612;13.300;2023-09-07T00:45:56;10.93;;;6.70;;
18796;SDS011;9526;52.612;13.300;2023-09-07T00:48:19;10.63;;;6.03;;
18796;SDS011;9526;52.612;13.300;2023-09-07T00:50:43;7.85;;;5.88;;
18796;SDS011;9526;52.612;13.300;2023-09-07T00:53:09;10.75;;;6.22;;
18796;SDS011;9526;52.612;13.300;2023-09-07T00:55:33;10.57;;;6.43;;
18796;SDS011;9526;52.612;13.300;2023-09-07T00:57:58;8.93;;;6.18;;
18796;SDS011;9526;52.612;13.300;2023-09-07T01:00:22;9.18;;;6.57;;
18796;SDS011;9526;52.612;13.300;2023-09-07T01:02:46;8.95;;;5.95;;
18796;SDS011;9526;52.612;13.300;2023-09-07T01:05:10;8.30;;;6.05;;
18796;SDS011;9526;52.612;13.300;2023-09-07T01:07:35;8.10;;;5.93;;
18796;SDS011;9526;52.612;13.300;2023-09-07T01:10:06;8.85;;;6.40;;
18796;SDS011;9526;52.612;13.300;2023-09-07T01:12:31;9.25;;;6.28;;
18796;SDS011;9526;52.612;13.300;2023-09-07T01:14:55;9.90;;;6.57;;
18796;SDS011;9526;52.612;13.300;2023-09-07T01:17:20;9.30;;;6.45;;
18796;SDS011;9526;52.612;13.300;2023-09-07T01:19:44;10.50;;;6.00;;
18796;SDS011;9526;52.612;13.300;2023-09-07T01:22:13;6.57;;;5.75;;
18796;SDS011;9526;52.612;13.300;2023-09-07T01:24:37;9.63;;;6.30;;
18796;SDS011;9526;52.612;13.300;2023-09-07T01:27:03;9.57;;;6.55;;
18796;SDS011;9526;52.612;13.300;2023-09-07T01:29:28;8.88;;;6.22;;
18796;SDS011;9526;52.612;13.300;2023-09-07T01:31:52;9.15;;;6.57;;
18796;SDS011;9526;52.612;13.300;2023-09-07T01:34:16;9.25;;;6.43;;
18796;SDS011;9526;52.612;13.300;2023-09-07T01:36:40;8.55;;;6.20;;
18796;SDS011;9526;52.612;13.300;2023-09-07T01:39:05;7.65;;;5.93;;
18796;SDS011;9526;52.612;13.300;2023-09-07T01:41:31;9.07;;;6.60;;
18796;SDS011;9526;52.612;13.300;2023-09-07T01:43:55;8.40;;;6.25;;
18796;SDS011;9526;52.612;13.300;2023-09-07T01:46:19;7.93;;;6.13;;
18796;SDS011;9526;52.612;13.300;2023-09-07T01:48:42;9.30;;;6.60;;
18796;SDS011;9526;52.612;13.300;2023-09-07T01:51:06;8.65;;;6.03;;
18796;SDS011;9526;52.612;13.300;2023-09-07T01:53:30;8.63;;;6.32;;
18796;SDS011;9526;52.612;13.300;2023-09-07T01:55:55;8.40;;;6.38;;
18796;SDS011;9526;52.612;13.300;2023-09-07T01:58:21;8.95;;;5.97;;
18796;SDS011;9526;52.612;13.300;2023-09-07T02:00:45;8.98;;;6.22;;
18796;SDS011;9526;52.612;13.300;2023-09-07T02:03:09;7.85;;;6.05;;
18796;SDS011;9526;52.612;13.300;2023-09-07T02:05:33;9.23;;;6.43;;
18796;SDS011;9526;52.612;13.300;2023-09-07T02:07:57;9.20;;;6.25;;
18796;SDS011;9526;52.612;13.300;2023-09-07T02:10:20;8.98;;;6.30;;
18796;SDS011;9526;52.612;13.300;2023-09-07T02:12:46;8.15;;;6.13;;
18796;SDS011;9526;52.612;13.300;2023-09-07T02:15:10;9.45;;;6.50;;
18796;SDS011;9526;52.612;13.300;2023-09-07T02:17:35;8.77;;;6.60;;
18796;SDS011;9526;52.612;13.300;2023-09-07T02:19:58;8.50;;;6.50;;
18796;SDS011;9526;52.612;13.300;2023-09-07T02:22:22;11.68;;;6.15;;
18796;SDS011;9526;52.612;13.300;2023-09-07T02:24:46;11.98;;;6.28;;
18796;SDS011;9526;52.612;13.300;2023-09-07T02:27:10;8.98;;;6.43;;
18796;SDS011;9526;52.612;13.300;2023-09-07T02:29:35;9.35;;;6.40;;
18796;SDS011;9526;52.612;13.300;2023-09-07T02:32:00;11.35;;;6.35;;
18796;SDS011;9526;52.612;13.300;2023-09-07T02:34:23;11.13;;;6.78;;
18796;SDS011;9526;52.612;13.300;2023-09-07T02:36:47;10.60;;;6.20;;
18796;SDS011;9526;52.612;13.300;2023-09-07T02:39:11;9.68;;;6.18;;
18796;SDS011;9526;52.612;13.300;2023-09-07T02:41:35;7.30;;;5.43;;
18796;SDS011;9526;52.612;13.300;2023-09-07T02:43:59;9.90;;;6.07;;
18796;SDS011;9526;52.612;13.300;2023-09-07T02:46:24;8.18;;;6.15;;
18796;SDS011;9526;52.612;13.300;2023-09-07T02:48:48;9.85;;;6.45;;
18796;SDS011;9526;52.612;13.300;2023-09-07T02:51:12;11.48;;;6.88;;
18796;SDS011;9526;52.612;13.300;2023-09-07T02:53:36;8.73;;;6.47;;
18796;SDS011;9526;52.612;13.300;2023-09-07T02:56:00;8.52;;;6.25;;
18796;SDS011;9526;52.612;13.300;2023-09-07T02:58:25;9.23;;;6.22;;
18796;SDS011;9526;52.612;13.300;2023-09-07T03:00:50;9.95;;;6.70;;
18796;SDS011;9526;52.612;13.300;2023-09-07T03:03:17;8.93;;;5.95;;
18796;SDS011;9526;52.612;13.300;2023-09-07T03:05:42;10.98;;;6.55;;
18796;SDS011;9526;52.612;13.300;2023-09-07T03:08:06;9.02;;;6.68;;
18796;SDS011;9526;52.612;13.300;2023-09-07T03:10:30;10.98;;;7.07;;
18796;SDS011;9526;52.612;13.300;2023-09-07T03:12:54;10.07;;;6.70;;
18796;SDS011;9526;52.612;13.300;2023-09-07T03:15:17;8.07;;;6.25;;
18796;SDS011;9526;52.612;13.300;2023-09-07T03:17:41;9.43;;;6.88;;
18796;SDS011;9526;52.612;13.300;2023-09-07T03:20:08;10.00;;;6.70;;
18796;SDS011;9526;52.612;13.300;2023-09-07T03:22:40;10.07;;;6.63;;
18796;SDS011;9526;52.612;13.300;2023-09-07T03:25:04;9.43;;;6.28;;
18796;SDS011;9526;52.612;13.300;2023-09-07T03:27:31;10.18;;;6.38;;
18796;SDS011;9526;52.612;13.300;2023-09-07T03:29:54;9.70;;;6.18;;
18796;SDS011;9526;52.612;13.300;2023-09-07T03:32:18;11.75;;;6.53;;
18796;SDS011;9526;52.612;13.300;2023-09-07T03:34:42;8.48;;;6.22;;
18796;SDS011;9526;52.612;13.300;2023-09-07T03:37:07;8.25;;;6.15;;
18796;SDS011;9526;52.612;13.300;2023-09-07T03:39:33;8.50;;;5.95;;
18796;SDS011;9526;52.612;13.300;2023-09-07T03:41:57;8.60;;;6.22;;
18796;SDS011;9526;52.612;13.300;2023-09-07T03:44:21;10.55;;;7.05;;
18796;SDS011;9526;52.612;13.300;2023-09-07T03:46:45;9.25;;;6.95;;
18796;SDS011;9526;52.612;13.300;2023-09-07T03:49:09;9.60;;;6.57;;
18796;SDS011;9526;52.612;13.300;2023-09-07T03:51:33;9.30;;;6.80;;
18796;SDS011;9526;52.612;13.300;2023-09-07T03:53:58;9.27;;;6.80;;
18796;SDS011;9526;52.612;13.300;2023-09-07T03:56:22;8.95;;;6.15;;
18796;SDS011;9526;52.612;13.300;2023-09-07T03:58:46;10.68;;;6.05;;
18796;SDS011;9526;52.612;13.300;2023-09-07T04:01:09;9.75;;;6.90;;
18796;SDS011;9526;52.612;13.300;2023-09-07T04:03:33;9.55;;;6.75;;
18796;SDS011;9526;52.612;13.300;2023-09-07T04:05:57;10.32;;;7.05;;
18796;SDS011;9526;52.612;13.300;2023-09-07T04:08:22;8.43;;;6.75;;
18796;SDS011;9526;52.612;13.300;2023-09-07T04:10:47;9.43;;;6.82;;
18796;SDS011;9526;52.612;13.300;2023-09-07T04:13:10;10.40;;;6.80;;
18796;SDS011;9526;52.612;13.300;2023-09-07T04:15:40;11.20;;;6.75;;
18796;SDS011;9526;52.612;13.300;2023-09-07T04:18:07;10.40;;;7.15;;
18796;SDS011;9526;52.612;13.300;2023-09-07T04:20:30;10.07;;;6.90;;
18796;SDS011;9526;52.612;13.300;2023-09-07T04:22:54;9.18;;;6.47;;
18796;SDS011;9526;52.612;13.300;2023-09-07T04:25:18;9.85;;;6.68;;
18796;SDS011;9526;52.612;13.300;2023-09-07T04:27:44;9.38;;;6.72;;
18796;SDS011;9526;52.612;13.300;2023-09-07T04:30:08;9.25;;;6.47;;
18796;SDS011;9526;52.612;13.300;2023-09-07T04:32:32;9.75;;;7.30;;
18796;SDS011;9526;52.612;13.300;2023-09-07T04:34:57;9.90;;;6.80;;
18796;SDS011;9526;52.612;13.300;2023-09-07T04:37:24;10.40;;;7.25;;
18796;SDS011;9526;52.612;13.300;2023-09-07T04:39:50;9.02;;;7.00;;
18796;SDS011;9526;52.612;13.300;2023-09-07T04:42:17;13.52;;;7.05;;
18796;SDS011;9526;52.612;13.300;2023-09-07T04:44:42;12.70;;;7.30;;
18796;SDS011;9526;52.612;13.300;2023-09-07T04:47:05;9.20;;;6.63;;
18796;SDS011;9526;52.612;13.300;2023-09-07T04:49:29;9.60;;;7.07;;
18796;SDS011;9526;52.612;13.300;2023-09-07T04:51:53;9.70;;;6.90;;
18796;SDS011;9526;52.612;13.300;2023-09-07T04:54:17;14.02;;;7.32;;
18796;SDS011;9526;52.612;13.300;2023-09-07T04:56:40;9.75;;;6.97;;
18796;SDS011;9526;52.612;13.300;2023-09-07T04:59:04;11.65;;;7.57;;
18796;SDS011;9526;52.612;13.300;2023-09-07T05:01:29;15.13;;;7.10;;
18796;SDS011;9526;52.612;13.300;2023-09-07T05:03:54;11.30;;;7.18;;
18796;SDS011;9526;52.612;13.300;2023-09-07T05:06:17;9.70;;;7.43;;
18796;SDS011;9526;52.612;13.300;2023-09-07T05:08:41;10.00;;;7.35;;
18796;SDS011;9526;52.612;13.300;2023-09-07T05:11:05;10.65;;;7.68;;
18796;SDS011;9526;52.612;13.300;2023-09-07T05:13:29;10.32;;;7.55;;
18796;SDS011;9526;52.612;13.300;2023-09-07T05:15:55;12.05;;;7.65;;
18796;SDS011;9526;52.612;13.300;2023-09-07T05:18:22;10.98;;;7.38;;
18796;SDS011;9526;52.612;13.300;2023-09-07T05:20:46;11.27;;;7.75;;
18796;SDS011;9526;52.612;13.300;2023-09-07T05:23:13;10.05;;;7.32;;
18796;SDS011;9526;52.612;13.300;2023-09-07T05:25:42;15.20;;;7.63;;
18796;SDS011;9526;52.612;13.300;2023-09-07T05:28:07;12.05;;;7.43;;
18796;SDS011;9526;52.612;13.300;2023-09-07T05:30:31;11.18;;;7.78;;
18796;SDS011;9526;52.612;13.300;2023-09-07T05:32:54;12.32;;;7.82;;
18796;SDS011;9526;52.612;13.300;2023-09-07T05:35:20;11.73;;;7.78;;
18796;SDS011;9526;52.612;13.300;2023-09-07T05:37:49;18.10;;;8.63;;
18796;SDS011;9526;52.612;13.300;2023-09-07T05:40:12;14.60;;;8.75;;
18796;SDS011;9526;52.612;13.300;2023-09-07T05:42:36;11.68;;;8.25;;
18796;SDS011;9526;52.612;13.300;2023-09-07T05:45:01;12.70;;;8.57;;
18796;SDS011;9526;52.612;13.300;2023-09-07T05:47:25;13.90;;;8.48;;
18796;SDS011;9526;52.612;13.300;2023-09-07T05:49:51;12.82;;;8.65;;
18796;SDS011;9526;52.612;13.300;2023-09-07T05:52:16;13.40;;;8.38;;
18796;SDS011;9526;52.612;13.300;2023-09-07T05:54:40;13.00;;;8.57;;
18796;SDS011;9526;52.612;13.300;2023-09-07T05:57:04;15.95;;;9.05;;
18796;SDS011;9526;52.612;13.300;2023-09-07T05:59:28;13.07;;;8.27;;
18796;SDS011;9526;52.612;13.300;2023-09-07T06:01:52;14.13;;;9.43;;
18796;SDS011;9526;52.612;13.300;2023-09-07T06:04:15;16.00;;;8.93;;
18796;SDS011;9526;52.612;13.300;2023-09-07T06:06:39;10.05;;;7.53;;
18796;SDS011;9526;52.612;13.300;2023-09-07T06:09:04;10.60;;;7.82;;
18796;SDS011;9526;52.612;13.300;2023-09-07T06:11:28;10.48;;;6.72;;
18796;SDS011;9526;52.612;13.300;2023-09-07T06:13:55;10.30;;;7.30;;
18796;SDS011;9526;52.612;13.300;2023-09-07T06:16:19;9.75;;;6.97;;
18796;SDS011;9526;52.612;13.300;2023-09-07T06:18:42;11.65;;;6.78;;
18796;SDS011;9526;52.612;13.300;2023-09-07T06:21:06;7.63;;;6.15;;
18796;SDS011;9526;52.612;13.300;2023-09-07T06:23:30;10.35;;;7.20;;
18796;SDS011;9526;52.612;13.300;2023-09-07T06:25:55;9.35;;;6.45;;
18796;SDS011;9526;52.612;13.300;2023-09-07T06:28:19;9.50;;;6.43;;
18796;SDS011;9526;52.612;13.300;2023-09-07T06:30:42;9.00;;;6.22;;
18796;SDS011;9526;52.612;13.300;2023-09-07T06:33:06;7.72;;;6.10;;
18796;SDS011;9526;52.612;13.300;2023-09-07T06:35:30;7.93;;;5.65;;
18796;SDS011;9526;52.612;13.300;2023-09-07T06:37:54;9.77;;;6.40;;
18796;SDS011;9526;52.612;13.300;2023-09-07T06:40:20;8.23;;;5.85;;
18796;SDS011;9526;52.612;13.300;2023-09-07T06:42:48;9.10;;;5.93;;
18796;SDS011;9526;52.612;13.300;2023-09-07T06:45:14;9.20;;;6.07;;
18796;SDS011;9526;52.612;13.300;2023-09-07T06:47:38;7.10;;;5.70;;
18796;SDS011;9526;52.612;13.300;2023-09-07T06:50:04;10.25;;;6.32;;
18796;SDS011;9526;52.612;13.300;2023-09-07T06:52:28;7.78;;;6.18;;
18796;SDS011;9526;52.612;13.300;2023-09-07T06:54:53;8.00;;;5.25;;
18796;SDS011;9526;52.612;13.300;2023-09-07T06:57:18;7.50;;;5.63;;
18796;SDS011;9526;52.612;13.300;2023-09-07T06:59:43;7.50;;;5.65;;
18796;SDS011;9526;52.612;13.300;2023-09-07T07:02:07;10.20;;;6.13;;
18796;SDS011;9526;52.612;13.300;2023-09-07T07:04:30;8.38;;;5.53;;
18796;SDS011;9526;52.612;13.300;2023-09-07T07:06:54;10.32;;;5.93;;
18796;SDS011;9526;52.612;13.300;2023-09-07T07:09:18;9.55;;;6.20;;
18796;SDS011;9526;52.612;13.300;2023-09-07T07:11:42;9.40;;;5.50;;
18796;SDS011;9526;52.612;13.300;2023-09-07T07:14:06;7.70;;;5.63;;
18796;SDS011;9526;52.612;13.300;2023-09-07T07:16:32;8.80;;;5.78;;
18796;SDS011;9526;52.612;13.300;2023-09-07T07:18:56;10.20;;;5.30;;
18796;SDS011;9526;52.612;13.300;2023-09-07T07:21:20;6.93;;;5.40;;
18796;SDS011;9526;52.612;13.300;2023-09-07T07:23:43;7.32;;;5.60;;
18796;SDS011;9526;52.612;13.300;2023-09-07T07:26:07;14.07;;;6.00;;
18796;SDS011;9526;52.612;13.300;2023-09-07T07:28:32;7.78;;;5.82;;
18796;SDS011;9526;52.612;13.300;2023-09-07T07:30:56;6.65;;;5.18;;
18796;SDS011;9526;52.612;13.300;2023-09-07T07:33:22;7.75;;;5.75;;
18796;SDS011;9526;52.612;13.300;2023-09-07T07:35:47;7.60;;;5.70;;
18796;SDS011;9526;52.612;13.300;2023-09-07T07:38:11;8.63;;;5.93;;
18796;SDS011;9526;52.612;13.300;2023-09-07T07:40:37;8.00;;;5.63;;
18796;SDS011;9526;52.612;13.300;2023-09-07T07:43:01;9.30;;;6.15;;
18796;SDS011;9526;52.612;13.300;2023-09-07T07:45:26;8.68;;;5.80;;
18796;SDS011;9526;52.612;13.300;2023-09-07T07:47:50;7.30;;;5.13;;
18796;SDS011;9526;52.612;13.300;2023-09-07T07:50:16;8.55;;;5.72;;
18796;SDS011;9526;52.612;13.300;2023-09-07T07:52:42;9.75;;;5.45;;
18796;SDS011;9526;52.612;13.300;2023-09-07T07:55:06;9.82;;;5.15;;
18796;SDS011;9526;52.612;13.300;2023-09-07T07:57:31;6.90;;;5.03;;
18796;SDS011;9526;52.612;13.300;2023-09-07T07:59:55;10.55;;;5.80;;
18796;SDS011;9526;52.612;13.300;2023-09-07T08:02:21;6.88;;;5.00;;
18796;SDS011;9526;52.612;13.300;2023-09-07T08:04:45;9.38;;;5.63;;
18796;SDS011;9526;52.612;13.300;2023-09-07T08:07:11;7.07;;;5.55;;
18796;SDS011;9526;52.612;13.300;2023-09-07T08:09:35;8.93;;;5.18;;
18796;SDS011;9526;52.612;13.300;2023-09-07T08:11:59;8.20;;;5.25;;
18796;SDS011;9526;52.612;13.300;2023-09-07T08:14:25;8.77;;;5.60;;
18796;SDS011;9526;52.612;13.300;2023-09-07T08:16:50;9.75;;;5.28;;
18796;SDS011;9526;52.612;13.300;2023-09-07T08:19:14;7.28;;;4.85;;
18796;SDS011;9526;52.612;13.300;2023-09-07T08:21:37;7.35;;;5.18;;
18796;SDS011;9526;52.612;13.300;2023-09-07T08:24:05;8.48;;;5.38;;
18796;SDS011;9526;52.612;13.300;2023-09-07T08:26:29;12.70;;;5.30;;
18796;SDS011;9526;52.612;13.300;2023-09-07T08:28:53;6.72;;;5.13;;
18796;SDS011;9526;52.612;13.300;2023-09-07T08:31:16;8.35;;;5.28;;
18796;SDS011;9526;52.612;13.300;2023-09-07T08:33:44;10.73;;;5.82;;
18796;SDS011;9526;52.612;13.300;2023-09-07T08:36:07;10.38;;;5.93;;
18796;SDS011;9526;52.612;13.300;2023-09-07T08:38:32;9.30;;;5.32;;
18796;SDS011;9526;52.612;13.300;2023-09-07T08:41:01;9.30;;;4.75;;
18796;SDS011;9526;52.612;13.300;2023-09-07T08:43:28;8.88;;;6.15;;
18796;SDS011;9526;52.612;13.300;2023-09-07T08:45:55;8.15;;;4.90;;
18796;SDS011;9526;52.612;13.300;2023-09-07T08:48:37;7.30;;;5.40;;
18796;SDS011;9526;52.612;13.300;2023-09-07T08:51:01;8.70;;;4.97;;
18796;SDS011;9526;52.612;13.300;2023-09-07T08:53:26;8.23;;;5.18;;
18796;SDS011;9526;52.612;13.300;2023-09-07T08:55:51;9.63;;;4.78;;
18796;SDS011;9526;52.612;13.300;2023-09-07T08:58:16;8.15;;;5.18;;
18796;SDS011;9526;52.612;13.300;2023-09-07T09:00:40;7.28;;;5.10;;
18796;SDS011;9526;52.612;13.300;2023-09-07T09:03:05;6.75;;;4.82;;
18796;SDS011;9526;52.612;13.300;2023-09-07T09:05:30;7.40;;;4.80;;
18796;SDS011;9526;52.612;13.300;2023-09-07T09:08:01;7.32;;;4.93;;
18796;SDS011;9526;52.612;13.300;2023-09-07T09:10:26;8.05;;;5.03;;
18796;SDS011;9526;52.612;13.300;2023-09-07T09:12:49;7.50;;;4.97;;
18796;SDS011;9526;52.612;13.300;2023-09-07T09:15:14;8.88;;;4.68;;
18796;SDS011;9526;52.612;13.300;2023-09-07T09:17:38;9.50;;;4.88;;
18796;SDS011;9526;52.612;13.300;2023-09-07T09:20:02;9.32;;;4.65;;
18796;SDS011;9526;52.612;13.300;2023-09-07T09:22:28;10.70;;;4.88;;
18796;SDS011;9526;52.612;13.300;2023-09-07T09:24:52;6.03;;;4.53;;
18796;SDS011;9526;52.612;13.300;2023-09-07T09:27:15;8.60;;;4.75;;
18796;SDS011;9526;52.612;13.300;2023-09-07T09:29:40;6.15;;;4.25;;
18796;SDS011;9526;52.612;13.300;2023-09-07T09:32:05;5.78;;;4.20;;
18796;SDS011;9526;52.612;13.300;2023-09-07T09:34:33;6.10;;;4.80;;
18796;SDS011;9526;52.612;13.300;2023-09-07T09:36:58;9.52;;;4.97;;
18796;SDS011;9526;52.612;13.300;2023-09-07T09:39:23;7.10;;;4.63;;
18796;SDS011;9526;52.612;13.300;2023-09-07T09:41:47;6.72;;;4.47;;
18796;SDS011;9526;52.612;13.300;2023-09-07T09:44:11;6.90;;;4.68;;
18796;SDS011;9526;52.612;13.300;2023-09-07T09:46:36;6.90;;;4.07;;
18796;SDS011;9526;52.612;13.300;2023-09-07T09:49:03;5.07;;;4.28;;
18796;SDS011;9526;52.612;13.300;2023-09-07T09:51:28;6.65;;;4.88;;
18796;SDS011;9526;52.612;13.300;2023-09-07T09:53:54;6.28;;;4.15;;
18796;SDS011;9526;52.612;13.300;2023-09-07T09:56:18;8.18;;;4.68;;
18796;SDS011;9526;52.612;13.300;2023-09-07T09:58:43;6.53;;;4.57;;
18796;SDS011;9526;52.612;13.300;2023-09-07T10:01:06;6.50;;;4.55;;
18796;SDS011;9526;52.612;13.300;2023-09-07T10:03:32;5.32;;;4.40;;
18796;SDS011;9526;52.612;13.300;2023-09-07T10:06:10;6.22;;;4.53;;
18796;SDS011;9526;52.612;13.300;2023-09-07T10:08:50;6.78;;;4.70;;
18796;SDS011;9526;52.612;13.300;2023-09-07T10:11:17;6.70;;;4.68;;
18796;SDS011;9526;52.612;13.300;2023-09-07T10:13:56;5.78;;;4.43;;
18796;SDS011;9526;52.612;13.300;2023-09-07T10:16:21;7.22;;;4.80;;
18796;SDS011;9526;52.612;13.300;2023-09-07T10:18:44;12.27;;;4.20;;
18796;SDS011;9526;52.612;13.300;2023-09-07T10:21:08;8.70;;;4.85;;
18796;SDS011;9526;52.612;13.300;2023-09-07T10:23:36;6.20;;;4.30;;
18796;SDS011;9526;52.612;13.300;2023-09-07T10:26:03;6.15;;;4.25;;
18796;SDS011;9526;52.612;13.300;2023-09-07T10:28:28;6.05;;;4.40;;
18796;SDS011;9526;52.612;13.300;2023-09-07T10:30:59;5.40;;;4.20;;
18796;SDS011;9526;52.612;13.300;2023-09-07T10:33:26;7.85;;;4.43;;
18796;SDS011;9526;52.612;13.300;2023-09-07T10:35:49;8.48;;;4.10;;
18796;SDS011;9526;52.612;13.300;2023-09-07T10:38:15;5.13;;;4.15;;
18796;SDS011;9526;52.612;13.300;2023-09-07T10:40:38;6.38;;;4.05;;
18796;SDS011;9526;52.612;13.300;2023-09-07T10:43:03;4.72;;;3.42;;
18796;SDS011;9526;52.612;13.300;2023-09-07T10:45:26;8.50;;;4.65;;
18796;SDS011;9526;52.612;13.300;2023-09-07T10:47:50;5.22;;;4.28;;
18796;SDS011;9526;52.612;13.300;2023-09-07T10:50:14;5.68;;;3.92;;
18796;SDS011;9526;52.612;13.300;2023-09-07T10:52:38;5.03;;;3.80;;
18796;SDS011;9526;52.612;13.300;2023-09-07T10:55:05;5.72;;;3.85;;
18796;SDS011;9526;52.612;13.300;2023-09-07T10:57:31;5.03;;;4.05;;
18796;SDS011;9526;52.612;13.300;2023-09-07T10:59:55;6.32;;;3.95;;
18796;SDS011;9526;52.612;13.300;2023-09-07T11:02:18;5.38;;;3.97;;
18796;SDS011;9526;52.612;13.300;2023-09-07T11:04:42;6.35;;;3.80;;
18796;SDS011;9526;52.612;13.300;2023-09-07T11:07:06;6.47;;;3.90;;
18796;SDS011;9526;52.612;13.300;2023-09-07T11:09:30;7.30;;;4.10;;
18796;SDS011;9526;52.612;13.300;2023-09-07T11:11:55;5.68;;;4.15;;
18796;SDS011;9526;52.612;13.300;2023-09-07T11:14:21;7.88;;;4.15;;
18796;SDS011;9526;52.612;13.300;2023-09-07T11:16:45;6.85;;;4.43;;
18796;SDS011;9526;52.612;13.300;2023-09-07T11:19:09;5.22;;;3.90;;
18796;SDS011;9526;52.612;13.300;2023-09-07T11:21:33;5.68;;;4.07;;
18796;SDS011;9526;52.612;13.300;2023-09-07T11:23:57;5.78;;;4.30;;
18796;SDS011;9526;52.612;13.300;2023-09-07T11:26:21;8.02;;;4.00;;
18796;SDS011;9526;52.612;13.300;2023-09-07T11:28:47;7.22;;;4.57;;
18796;SDS011;9526;52.612;13.300;2023-09-07T11:31:10;5.78;;;4.03;;
18796;SDS011;9526;52.612;13.300;2023-09-07T11:33:35;4.15;;;3.55;;
18796;SDS011;9526;52.612;13.300;2023-09-07T11:35:58;3.85;;;3.17;;
18796;SDS011;9526;52.612;13.300;2023-09-07T11:38:22;5.68;;;3.70;;
18796;SDS011;9526;52.612;13.300;2023-09-07T11:40:46;4.53;;;3.80;;
18796;SDS011;9526;52.612;13.300;2023-09-07T11:43:09;5.57;;;3.22;;
18796;SDS011;9526;52.612;13.300;2023-09-07T11:45:35;5.68;;;3.90;;
18796;SDS011;9526;52.612;13.300;2023-09-07T11:47:59;5.78;;;3.72;;
18796;SDS011;9526;52.612;13.300;2023-09-07T11:50:24;5.85;;;3.80;;
18796;SDS011;9526;52.612;13.300;2023-09-07T11:52:49;5.45;;;3.97;;
18796;SDS011;9526;52.612;13.300;2023-09-07T11:55:13;6.95;;;3.80;;
18796;SDS011;9526;52.612;13.300;2023-09-07T11:57:37;4.43;;;3.53;;
18796;SDS011;9526;52.612;13.300;2023-09-07T12:00:03;5.88;;;3.92;;
18796;SDS011;9526;52.612;13.300;2023-09-07T12:02:34;5.47;;;4.10;;
18796;SDS011;9526;52.612;13.300;2023-09-07T12:04:57;4.80;;;3.92;;
18796;SDS011;9526;52.612;13.300;2023-09-07T12:07:22;4.75;;;3.83;;
18796;SDS011;9526;52.612;13.300;2023-09-07T12:09:46;6.60;;;3.75;;
18796;SDS011;9526;52.612;13.300;2023-09-07T12:12:11;5.22;;;3.67;;
18796;SDS011;9526;52.612;13.300;2023-09-07T12:14:34;4.60;;;3.67;;
18796;SDS011;9526;52.612;13.300;2023-09-07T12:16:58;4.53;;;3.35;;
18796;SDS011;9526;52.612;13.300;2023-09-07T12:19:23;4.50;;;3.53;;
18796;SDS011;9526;52.612;13.300;2023-09-07T12:21:47;3.55;;;3.20;;
18796;SDS011;9526;52.612;13.300;2023-09-07T12:24:11;7.18;;;3.60;;
18796;SDS011;9526;52.612;13.300;2023-09-07T12:26:35;4.05;;;3.40;;
18796;SDS011;9526;52.612;13.300;2023-09-07T12:28:58;4.93;;;3.28;;
18796;SDS011;9526;52.612;13.300;2023-09-07T12:31:22;4.15;;;3.22;;
18796;SDS011;9526;52.612;13.300;2023-09-07T12:33:46;4.68;;;3.10;;
18796;SDS011;9526;52.612;13.300;2023-09-07T12:36:11;6.18;;;3.17;;
18796;SDS011;9526;52.612;13.300;2023-09-07T12:38:35;5.70;;;3.17;;
18796;SDS011;9526;52.612;13.300;2023-09-07T12:40:59;4.75;;;3.33;;
18796;SDS011;9526;52.612;13.300;2023-09-07T12:43:23;4.53;;;3.35;;
18796;SDS011;9526;52.612;13.300;2023-09-07T12:45:47;4.70;;;3.35;;
18796;SDS011;9526;52.612;13.300;2023-09-07T12:48:11;5.13;;;3.45;;
18796;SDS011;9526;52.612;13.300;2023-09-07T12:50:35;5.95;;;3.50;;
18796;SDS011;9526;52.612;13.300;2023-09-07T12:53:00;4.63;;;3.70;;
18796;SDS011;9526;52.612;13.300;2023-09-07T12:55:23;6.20;;;3.33;;
18796;SDS011;9526;52.612;13.300;2023-09-07T12:57:47;4.90;;;3.30;;
18796;SDS011;9526;52.612;13.300;2023-09-07T13:00:11;6.18;;;3.67;;
18796;SDS011;9526;52.612;13.300;2023-09-07T13:02:37;4.53;;;3.55;;
18796;SDS011;9526;52.612;13.300;2023-09-07T13:05:01;5.47;;;3.58;;
18796;SDS011;9526;52.612;13.300;2023-09-07T13:07:27;5.43;;;3.55;;
18796;SDS011;9526;52.612;13.300;2023-09-07T13:09:52;8.15;;;4.47;;
18796;SDS011;9526;52.612;13.300;2023-09-07T13:12:16;6.35;;;3.78;;
18796;SDS011;9526;52.612;13.300;2023-09-07T13:14:40;5.30;;;3.85;;
18796;SDS011;9526;52.612;13.300;2023-09-07T13:17:04;5.97;;;4.38;;
18796;SDS011;9526;52.612;13.300;2023-09-07T13:19:28;6.85;;;3.53;;
18796;SDS011;9526;52.612;13.300;2023-09-07T13:21:52;6.90;;;3.83;;
18796;SDS011;9526;52.612;13.300;2023-09-07T13:24:16;4.47;;;3.58;;
18796;SDS011;9526;52.612;13.300;2023-09-07T13:26:41;4.75;;;3.40;;
18796;SDS011;9526;52.612;13.300;2023-09-07T13:29:05;5.32;;;3.50;;
18796;SDS011;9526;52.612;13.300;2023-09-07T13:31:30;4.95;;;3.58;;
18796;SDS011;9526;52.612;13.300;2023-09-07T13:33:57;5.72;;;3.33;;
18796;SDS011;9526;52.612;13.300;2023-09-07T13:36:20;6.00;;;3.17;;
18796;SDS011;9526;52.612;13.300;2023-09-07T13:38:44;6.68;;;3.20;;
18796;SDS011;9526;52.612;13.300;2023-09-07T13:41:08;4.18;;;3.40;;
18796;SDS011;9526;52.612;13.300;2023-09-07T13:43:34;7.35;;;3.55;;
18796;SDS011;9526;52.612;13.300;2023-09-07T13:45:58;4.43;;;3.20;;
18796;SDS011;9526;52.612;13.300;2023-09-07T13:48:25;5.10;;;3.30;;
18796;SDS011;9526;52.612;13.300;2023-09-07T13:50:49;4.32;;;2.70;;
18796;SDS011;9526;52.612;13.300;2023-09-07T13:53:13;5.20;;;3.08;;
18796;SDS011;9526;52.612;13.300;2023-09-07T13:55:37;5.50;;;3.60;;
18796;SDS011;9526;52.612;13.300;2023-09-07T13:58:03;5.40;;;3.42;;
18796;SDS011;9526;52.612;13.300;2023-09-07T14:00:29;4.38;;;3.05;;
18796;SDS011;9526;52.612;13.300;2023-09-07T14:02:53;5.20;;;3.15;;
18796;SDS011;9526;52.612;13.300;2023-09-07T14:05:18;8.52;;;4.10;;
18796;SDS011;9526;52.612;13.300;2023-09-07T14:07:44;4.07;;;3.05;;
18796;SDS011;9526;52.612;13.300;2023-09-07T14:10:08;5.18;;;3.47;;
18796;SDS011;9526;52.612;13.300;2023-09-07T14:12:32;5.28;;;3.20;;
18796;SDS011;9526;52.612;13.300;2023-09-07T14:14:56;6.22;;;3.97;;
18796;SDS011;9526;52.612;13.300;2023-09-07T14:17:21;10.73;;;3.58;;
18796;SDS011;9526;52.612;13.300;2023-09-07T14:19:45;3.92;;;3.17;;
18796;SDS011;9526;52.612;13.300;2023-09-07T14:22:11;6.45;;;3.38;;
18796;SDS011;9526;52.612;13.300;2023-09-07T14:24:35;6.30;;;3.47;;
18796;SDS011;9526;52.612;13.300;2023-09-07T14:26:59;6.22;;;3.78;;
18796;SDS011;9526;52.612;13.300;2023-09-07T14:29:23;5.82;;;3.67;;